Federal Sable — V7WS4 — position and weather

sailwx.info

Track history (hours):
 
Tides and Currents Weather Stations Pressure Air Temp Water Temp Dewpoint Dewpoint Depression Visibility Wind Speed Wind Dir Waves Ship Positions

Federal Sable

Last reported at 2015-May-01 04:30 UTC. Time now 2015-May-04 03:59 UTC.
Position N 27°46' W 016°35'.

Length 190 m; draft 6.4 m.

Type: Cargo ship. MMSI: 538004380.

Date/timePositionNaut miles runAvg speedWind from/ knotsBaromVisibWave heightAir tempDewpointWater temp
2015-May-01 04:30N 27°46' W 016°35'3610.9
2015-May-01 01:12N 28°14' W 016°08'  
2015-Apr-28 04:33N 35°58' W 005°35'7 7.3
2015-Apr-28 03:33N 36°01' W 005°26'6 5.9
2015-Apr-28 02:34N 36°05' W 005°22'2 1.7
2015-Apr-28 01:32N 36°07' W 005°22'0 0.0
2015-Apr-28 00:32N 36°07' W 005°22'0 0.0
2015-Apr-27 23:32N 36°07' W 005°22'0 0.0
2015-Apr-27 22:32N 36°07' W 005°22'0 0.0
2015-Apr-27 21:32N 36°07' W 005°22'0 0.0
2015-Apr-27 20:27N 36°07' W 005°22'1 1.7
2015-Apr-27 19:33N 36°06' W 005°21'8 8.1
2015-Apr-27 18:33N 36°05' W 005°11'10610.6
2015-Apr-27 08:32N 36°19' W 003°01'1110.6
2015-Apr-27 07:31N 36°21' W 002°48'10 9.8
2015-Apr-27 06:29N 36°22' W 002°35'9 9.9
2015-Apr-27 05:33N 36°23' W 002°24'11 9.8
2015-Apr-27 04:26N 36°26' W 002°11'15410.1
2015-Apr-26 13:11N 36°51' E 000°58'910.7
2015-Apr-26 12:20N 36°52' E 001°09'911.0
2015-Apr-26 11:33N 36°54' E 001°20'10611.6
2015-Apr-26 02:25N 37°11' E 003°31'3611.9
2015-Apr-25 23:25N 37°17' E 004°15'17712.4
2015-Apr-25 09:08N 37°45' E 007°55'912.2
2015-Apr-25 08:25N 37°46' E 008°06'1112.3
2015-Apr-25 07:29N 37°48' E 008°21'1112.2
2015-Apr-25 06:33N 37°50' E 008°35'12412.0
2015-Apr-24 20:14N 37°40' E 011°11'10912.3
2015-Apr-24 11:23N 37°00' E 013°19'1011.8
2015-Apr-24 10:30N 36°54' E 013°29'1111.6
2015-Apr-24 09:33N 36°49' E 013°41'1212.2
2015-Apr-24 08:33N 36°45' E 013°56'1212.1
2015-Apr-24 07:33N 36°39' E 014°09'1212.2
2015-Apr-24 06:33N 36°34' E 014°23'1212.0
2015-Apr-24 05:33N 36°30' E 014°37'1212.0
2015-Apr-24 04:33N 36°26' E 014°51'1312.1
2015-Apr-24 03:30N 36°23' E 015°06'1212.3
2015-Apr-24 02:32N 36°20' E 015°20'45612.2
2015-Apr-22 13:07N 35°56' E 024°43'812.2
2015-Apr-22 12:30N 35°57' E 024°53'1111.9
2015-Apr-22 11:33N 35°59' E 025°06'1312.1
2015-Apr-22 10:30N 36°01' E 025°22'1212.4
2015-Apr-22 09:31N 36°03' E 025°37'1212.3
2015-Apr-22 08:33N 36°05' E 025°51'1312.3
2015-Apr-22 07:31N 36°07' E 026°07'  
Track history (hours):
 
Tides and Currents Weather Stations Pressure Air Temp Water Temp Dewpoint Dewpoint Depression Visibility Wind Speed Wind Dir Waves Ship Positions

Federal Sable

Last reported at 2015-May-01 04:30 UTC. Time now 2015-May-04 03:59 UTC.
Position N 27°46' W 016°35'.

Length 190 m; draft 6.4 m.

Type: Cargo ship. MMSI: 538004380.

Date/timePositionNaut miles runAvg speedWind from/ knotsBaromVisibWave heightAir tempDewpointWater temp
2015-May-01 04:30N 27°46' W 016°35'3610.9
2015-May-01 01:12N 28°14' W 016°08'  
2015-Apr-28 04:33N 35°58' W 005°35'7 7.3
2015-Apr-28 03:33N 36°01' W 005°26'6 5.9
2015-Apr-28 02:34N 36°05' W 005°22'2 1.7
2015-Apr-28 01:32N 36°07' W 005°22'0 0.0
2015-Apr-28 00:32N 36°07' W 005°22'0 0.0
2015-Apr-27 23:32N 36°07' W 005°22'0 0.0
2015-Apr-27 22:32N 36°07' W 005°22'0 0.0
2015-Apr-27 21:32N 36°07' W 005°22'0 0.0
2015-Apr-27 20:27N 36°07' W 005°22'1 1.7
2015-Apr-27 19:33N 36°06' W 005°21'8 8.1
2015-Apr-27 18:33N 36°05' W 005°11'10610.6
2015-Apr-27 08:32N 36°19' W 003°01'1110.6
2015-Apr-27 07:31N 36°21' W 002°48'10 9.8
2015-Apr-27 06:29N 36°22' W 002°35'9 9.9
2015-Apr-27 05:33N 36°23' W 002°24'11 9.8
2015-Apr-27 04:26N 36°26' W 002°11'15410.1
2015-Apr-26 13:11N 36°51' E 000°58'910.7
2015-Apr-26 12:20N 36°52' E 001°09'911.0
2015-Apr-26 11:33N 36°54' E 001°20'10611.6
2015-Apr-26 02:25N 37°11' E 003°31'3611.9
2015-Apr-25 23:25N 37°17' E 004°15'17712.4
2015-Apr-25 09:08N 37°45' E 007°55'912.2
2015-Apr-25 08:25N 37°46' E 008°06'1112.3
2015-Apr-25 07:29N 37°48' E 008°21'1112.2
2015-Apr-25 06:33N 37°50' E 008°35'12412.0
2015-Apr-24 20:14N 37°40' E 011°11'10912.3
2015-Apr-24 11:23N 37°00' E 013°19'1011.8
2015-Apr-24 10:30N 36°54' E 013°29'1111.6
2015-Apr-24 09:33N 36°49' E 013°41'1212.2
2015-Apr-24 08:33N 36°45' E 013°56'1212.1
2015-Apr-24 07:33N 36°39' E 014°09'1212.2
2015-Apr-24 06:33N 36°34' E 014°23'1212.0
2015-Apr-24 05:33N 36°30' E 014°37'1212.0
2015-Apr-24 04:33N 36°26' E 014°51'1312.1
2015-Apr-24 03:30N 36°23' E 015°06'1212.3
2015-Apr-24 02:32N 36°20' E 015°20'45612.2
2015-Apr-22 13:07N 35°56' E 024°43'812.2
2015-Apr-22 12:30N 35°57' E 024°53'1111.9
2015-Apr-22 11:33N 35°59' E 025°06'1312.1
2015-Apr-22 10:30N 36°01' E 025°22'1212.4
2015-Apr-22 09:31N 36°03' E 025°37'1212.3
2015-Apr-22 08:33N 36°05' E 025°51'1312.3
2015-Apr-22 07:31N 36°07' E 026°07'  

Dump ship's entire track history